createdAt,value
2018-09-04T00:00:15.851Z,83.33
2018-09-04T00:06:20.915Z,84.20
2018-09-04T00:12:26.257Z,84.51
2018-09-04T00:18:30.934Z,85.01
2018-09-04T00:24:35.808Z,86.46
2018-09-04T00:30:41.765Z,85.74
2018-09-04T00:36:47.407Z,86.49
2018-09-04T00:42:52.196Z,85.76
2018-09-04T00:48:57.145Z,86.34
2018-09-04T00:55:01.967Z,87.52
2018-09-04T01:01:06.705Z,86.85
2018-09-04T01:07:11.823Z,87.17
2018-09-04T01:13:16.784Z,88.23
2018-09-04T01:19:21.509Z,86.48
2018-09-04T01:25:26.388Z,87.41
2018-09-04T01:31:31.225Z,87.47
2018-09-04T01:37:36.063Z,87.41
2018-09-04T01:43:41.998Z,87.39
2018-09-04T01:49:47.029Z,88.22
2018-09-04T01:55:52.015Z,88.65
2018-09-04T02:01:57.171Z,87.17
2018-09-04T02:08:02.057Z,88.74
2018-09-04T02:14:07.096Z,88.55
2018-09-04T02:20:12.046Z,88.83
2018-09-04T02:26:16.980Z,88.50
2018-09-04T02:32:21.936Z,88.45
2018-09-04T02:38:27.769Z,89.73
2018-09-04T02:44:32.940Z,89.14
2018-09-04T02:50:37.768Z,88.30
2018-09-04T02:56:47.852Z,88.61
2018-09-04T03:02:52.770Z,89.05
2018-09-04T03:08:57.652Z,88.65
2018-09-04T03:15:02.518Z,89.58
2018-09-04T03:21:07.438Z,89.89
2018-09-04T03:27:12.479Z,89.80
2018-09-04T03:33:17.274Z,89.82
2018-09-04T03:39:22.077Z,90.22
2018-09-04T03:45:27.194Z,90.60
2018-09-04T03:51:31.946Z,91.33
2018-09-04T03:57:37.215Z,91.92
2018-09-04T04:03:44.108Z,91.51
2018-09-04T04:09:49.230Z,91.17
2018-09-04T04:15:53.959Z,91.01
2018-09-04T04:21:58.862Z,90.55
2018-09-04T04:28:03.657Z,89.86
2018-09-04T04:34:09.876Z,90.52
2018-09-04T04:40:15.520Z,90.46
2018-09-04T04:46:20.325Z,90.83
2018-09-04T04:52:25.276Z,92.19
2018-09-04T04:58:30.017Z,91.64
2018-09-04T05:04:34.816Z,91.46
2018-09-04T05:10:40.815Z,91.63
2018-09-04T05:16:46.263Z,91.04
2018-09-04T05:22:51.220Z,91.93
2018-09-04T05:28:56.089Z,91.53
2018-09-04T05:35:01.112Z,91.10
2018-09-04T05:41:05.986Z,90.36
2018-09-04T05:47:10.967Z,91.09
2018-09-04T05:53:16.363Z,93.14
2018-09-04T05:59:21.554Z,92.91
2018-09-04T06:05:26.523Z,92.54
2018-09-04T06:11:31.313Z,92.17
2018-09-04T06:17:36.092Z,91.75
2018-09-04T06:23:41.758Z,89.89
2018-09-04T06:29:47.000Z,89.27
2018-09-04T06:35:52.071Z,88.76
2018-09-04T06:41:56.886Z,83.72
2018-09-04T06:48:01.901Z,79.46
2018-09-04T06:54:06.969Z,61.74
2018-09-04T07:00:15.078Z,54.36
2018-09-04T07:06:20.301Z,52.38
2018-09-04T07:12:25.097Z,51.52
2018-09-04T07:18:29.945Z,58.82
2018-09-04T07:24:34.808Z,63.00
2018-09-04T07:30:39.841Z,65.58
2018-09-04T07:36:46.235Z,66.99
2018-09-04T07:42:51.080Z,68.64
2018-09-04T07:48:55.855Z,68.31
2018-09-04T07:55:00.630Z,65.89
2018-09-04T08:01:06.354Z,65.86
2018-09-04T08:07:11.217Z,64.46
2018-09-04T08:13:16.454Z,63.71
2018-09-04T08:19:21.466Z,62.31
2018-09-04T08:25:26.979Z,59.92
2018-09-04T08:31:31.720Z,59.79
2018-09-04T08:37:36.710Z,57.47
2018-09-04T08:43:41.482Z,56.00
2018-09-04T08:49:46.725Z,56.23
2018-09-04T08:55:51.645Z,54.34
2018-09-04T09:01:56.545Z,53.12
2018-09-04T09:08:01.370Z,52.78
2018-09-04T09:14:06.423Z,50.58
2018-09-04T09:20:12.173Z,49.60
2018-09-04T09:26:17.020Z,47.33
2018-09-04T09:32:21.788Z,47.22
2018-09-04T09:38:26.699Z,48.31
2018-09-04T09:44:31.826Z,46.57
2018-09-04T09:50:36.771Z,44.24
2018-09-04T09:56:41.921Z,43.93
2018-09-04T10:02:51.988Z,37.81
2018-09-04T10:08:56.798Z,34.55
2018-09-04T10:15:01.511Z,32.59
2018-09-04T10:21:06.941Z,30.60
2018-09-04T10:27:12.441Z,28.57
2018-09-04T10:33:17.445Z,31.16
2018-09-04T10:39:27.477Z,31.27
2018-09-04T10:45:37.384Z,29.46
2018-09-04T10:51:43.309Z,30.09
2018-09-04T10:57:48.399Z,29.84
2018-09-04T11:03:53.250Z,31.60
2018-09-04T11:09:58.222Z,34.87
2018-09-04T11:16:03.139Z,34.23
2018-09-04T11:22:07.916Z,31.76
2018-09-04T11:28:14.051Z,28.97
2018-09-04T11:34:18.955Z,26.59
2018-09-04T11:40:24.017Z,27.47
2018-09-04T11:46:28.772Z,26.83
2018-09-04T11:52:33.801Z,31.95
2018-09-04T11:58:38.886Z,30.21
2018-09-04T12:04:45.098Z,30.23
2018-09-04T12:10:50.016Z,28.84
2018-09-04T12:16:54.792Z,28.07
2018-09-04T12:22:59.843Z,27.60
2018-09-04T12:29:05.072Z,28.69
2018-09-04T12:35:10.675Z,30.82
2018-09-04T12:41:17.019Z,31.93
2018-09-04T12:47:21.766Z,28.94
2018-09-04T12:53:27.488Z,28.87
2018-09-04T12:59:32.211Z,27.20
2018-09-04T13:05:37.415Z,25.79
2018-09-04T13:11:44.871Z,23.18
2018-09-04T13:17:49.641Z,24.27
2018-09-04T13:23:54.406Z,23.83
2018-09-04T13:29:59.437Z,23.33
2018-09-04T13:36:04.126Z,23.29
2018-09-04T13:42:09.372Z,23.54
2018-09-04T13:48:14.571Z,22.02
2018-09-04T13:54:19.577Z,22.02
2018-09-04T14:00:25.598Z,22.52
2018-09-04T14:06:30.488Z,22.41
2018-09-04T14:12:35.217Z,23.57
2018-09-04T14:18:40.368Z,22.71
2018-09-04T14:24:45.799Z,21.58
2018-09-04T14:30:50.763Z,23.32
2018-09-04T14:36:55.608Z,20.98
2018-09-04T14:43:00.416Z,20.97
2018-09-04T14:49:05.689Z,21.94
2018-09-04T14:55:11.660Z,21.93
2018-09-04T15:01:16.347Z,22.33
2018-09-04T15:07:21.061Z,23.21
2018-09-04T15:13:25.937Z,24.65
2018-09-04T15:19:31.108Z,24.74
2018-09-04T15:25:36.029Z,25.45
2018-09-04T15:31:41.421Z,26.62
2018-09-04T15:37:46.215Z,24.78
2018-09-04T15:43:51.140Z,23.50
2018-09-04T15:49:55.979Z,24.21
2018-09-04T15:56:00.748Z,26.28
2018-09-04T16:02:05.942Z,29.53
2018-09-04T16:08:11.311Z,28.14
2018-09-04T16:14:16.384Z,29.19
2018-09-04T16:20:21.264Z,30.63
2018-09-04T16:26:26.049Z,31.25
2018-09-04T16:32:30.955Z,30.98
2018-09-04T16:38:35.739Z,31.47
2018-09-04T16:44:41.700Z,29.93
2018-09-04T16:50:46.858Z,30.54
2018-09-04T16:56:52.281Z,31.02
2018-09-04T17:02:57.056Z,33.18
2018-09-04T17:09:01.735Z,33.18
2018-09-04T17:15:06.685Z,33.40
2018-09-04T17:21:11.746Z,35.47
2018-09-04T17:27:16.761Z,36.56
2018-09-04T17:33:21.890Z,37.39
2018-09-04T17:39:26.738Z,39.40
2018-09-04T17:45:31.535Z,40.66
2018-09-04T17:51:36.498Z,42.28
2018-09-04T17:57:41.349Z,42.79
2018-09-04T18:03:46.273Z,44.58
2018-09-04T18:09:50.990Z,46.21
2018-09-04T18:15:55.923Z,46.53
2018-09-04T18:22:00.744Z,47.19
2018-09-04T18:28:05.537Z,47.82
2018-09-04T18:34:11.719Z,48.95
2018-09-04T18:40:16.726Z,49.49
2018-09-04T18:47:06.941Z,49.31
2018-09-04T18:53:12.919Z,49.23
2018-09-04T18:59:17.863Z,50.90
2018-09-04T19:05:22.707Z,51.10
2018-09-04T19:11:27.488Z,51.36
2018-09-04T19:17:32.360Z,51.77
2018-09-04T19:23:37.244Z,52.15
2018-09-04T19:29:42.236Z,53.26
2018-09-04T19:35:47.215Z,54.61
2018-09-04T19:41:52.218Z,55.42
2018-09-04T19:47:57.380Z,55.80
2018-09-04T19:54:02.182Z,56.81
2018-09-04T20:00:07.977Z,57.97
2018-09-04T20:06:13.686Z,58.31
2018-09-04T20:12:18.697Z,58.80
2018-09-04T20:18:23.441Z,59.44
2018-09-04T20:24:28.467Z,60.06
2018-09-04T20:30:33.515Z,59.31
2018-09-04T20:36:38.719Z,60.06
2018-09-04T20:42:44.327Z,60.23
2018-09-04T20:48:49.960Z,59.60
2018-09-04T20:54:54.817Z,60.11
2018-09-04T21:01:16.247Z,60.79
2018-09-04T21:07:24.404Z,62.21
2018-09-04T21:13:29.162Z,61.80
2018-09-04T21:19:34.358Z,62.41
2018-09-04T21:25:39.254Z,62.69
2018-09-04T21:31:44.854Z,63.35
2018-09-04T21:37:49.494Z,62.85
2018-09-04T21:43:54.398Z,62.75
2018-09-04T21:49:59.465Z,63.12
2018-09-04T21:56:05.055Z,64.02
2018-09-04T22:02:10.344Z,64.24
2018-09-04T22:08:15.812Z,64.54
2018-09-04T22:14:21.022Z,64.64
2018-09-04T22:20:26.545Z,65.18
2018-09-04T22:26:31.374Z,65.33
2018-09-04T22:32:36.361Z,65.71
2018-09-04T22:38:42.196Z,66.23
2018-09-04T22:44:46.910Z,67.04
2018-09-04T22:50:56.877Z,67.37
2018-09-04T22:57:01.906Z,67.69
2018-09-04T23:03:06.884Z,68.04
2018-09-04T23:09:12.606Z,68.94
2018-09-04T23:15:17.367Z,70.03
2018-09-04T23:21:22.116Z,69.10
2018-09-04T23:27:27.172Z,70.26
2018-09-04T23:33:33.239Z,69.75
2018-09-04T23:39:39.992Z,70.64
2018-09-04T23:45:45.482Z,70.78
2018-09-04T23:51:50.290Z,70.95
2018-09-04T23:57:55.260Z,71.01
